Time;durP1;ratioP1;P1;durP2;ratioP2;P2;SDS_P1;SDS_P2;PMS_P1;PMS_P2;Temp;Humidity;BMP_temperature;BMP_pressure;BME280_temperature;BME280_humidity;BME280_pressure;Samples;Min_cycle;Max_cycle;Signal;HPM_P1;HPM_P2
2022/08/21 00:01:39;;;;;;;1.63;0.75;;;16.50;99.90;;;;;;5067315;28;20103;-85
2022/08/21 00:04:08;;;;;;;0.88;0.40;;;16.50;99.90;;;;;;5062180;28;20025;-85
2022/08/21 00:06:35;;;;;;;2.15;0.50;;;16.60;99.90;;;;;;5062958;28;20044;-85
2022/08/21 00:09:02;;;;;;;1.95;0.70;;;16.50;99.90;;;;;;5060144;28;20039;-85
2022/08/21 00:11:28;;;;;;;1.48;0.60;;;16.50;99.90;;;;;;5061683;28;20392;-85
2022/08/21 00:13:54;;;;;;;2.92;0.65;;;16.40;99.90;;;;;;5060226;28;20016;-85
2022/08/21 00:16:20;;;;;;;1.95;0.70;;;16.40;99.90;;;;;;5059984;28;20519;-85
2022/08/21 00:18:45;;;;;;;1.05;0.40;;;16.40;99.90;;;;;;5080140;22;20045;-81
2022/08/21 00:21:13;;;;;;;0.88;0.50;;;16.40;99.90;;;;;;5065189;28;20036;-84
2022/08/21 00:23:39;;;;;;;1.75;0.63;;;16.40;99.90;;;;;;5060508;28;20029;-84
2022/08/21 00:26:06;;;;;;;1.60;0.68;;;16.40;99.90;;;;;;5062456;28;20017;-84
2022/08/21 00:28:31;;;;;;;1.40;0.60;;;16.40;99.90;;;;;;5052795;28;20144;-84
2022/08/21 00:30:57;;;;;;;1.15;0.65;;;16.40;99.90;;;;;;5041848;28;20056;-84
2022/08/21 00:33:24;;;;;;;1.88;0.50;;;16.40;99.90;;;;;;5074957;22;20044;-85
2022/08/21 00:35:50;;;;;;;1.20;0.40;;;16.40;99.90;;;;;;5070826;28;20473;-84
2022/08/21 00:38:16;;;;;;;1.40;0.50;;;16.30;99.90;;;;;;5062657;28;20020;-85
2022/08/21 00:40:54;;;;;;;1.23;0.52;;;16.40;99.90;;;;;;5069384;28;20491;-85
2022/08/21 00:43:23;;;;;;;0.98;0.40;;;16.30;99.90;;;;;;5069517;28;20060;-84
2022/08/21 00:45:50;;;;;;;4.13;0.50;;;16.40;99.90;;;;;;5071541;28;20112;-85
2022/08/21 00:48:16;;;;;;;1.42;0.52;;;16.30;99.90;;;;;;5069316;28;20032;-85
2022/08/21 00:51:09;;;;;;;1.60;0.65;;;16.30;99.90;;;;;;5071711;28;20024;-85
2022/08/21 00:53:38;;;;;;;2.92;0.43;;;16.20;99.90;;;;;;5071813;28;20032;-84
2022/08/21 00:56:06;;;;;;;2.67;0.73;;;16.20;99.90;;;;;;5068788;28;20027;-85
2022/08/21 00:58:35;;;;;;;3.35;0.47;;;16.20;99.90;;;;;;5071161;28;20036;-85
2022/08/21 01:01:03;;;;;;;2.05;0.55;;;16.10;99.90;;;;;;5071839;28;20025;-84
2022/08/21 01:03:29;;;;;;;1.02;0.40;;;16.10;99.90;;;;;;5068685;28;20025;-84
2022/08/21 01:05:55;;;;;;;1.58;0.55;;;16.10;99.90;;;;;;5073235;28;20471;-85
2022/08/21 01:08:21;;;;;;;1.77;0.50;;;16.00;99.90;;;;;;5071867;28;20033;-85
2022/08/21 01:10:49;;;;;;;0.95;0.50;;;16.00;99.90;;;;;;5072948;28;20503;-84
2022/08/21 01:13:17;;;;;;;1.83;0.40;;;16.00;99.90;;;;;;5071540;28;20070;-84
2022/08/21 01:15:46;;;;;;;1.40;0.52;;;15.90;99.90;;;;;;5072389;28;20547;-84
2022/08/21 01:18:12;;;;;;;1.77;0.52;;;15.90;99.90;;;;;;5072477;28;20069;-84
2022/08/21 01:20:44;;;;;;;1.85;0.70;;;15.90;99.90;;;;;;5069078;28;20024;-85
2022/08/21 01:23:10;;;;;;;1.33;0.50;;;15.80;99.90;;;;;;5072081;28;20056;-84
2022/08/21 01:25:36;;;;;;;3.15;0.80;;;15.90;99.90;;;;;;5071500;28;20016;-84
2022/08/21 01:28:10;;;;;;;2.38;0.85;;;15.80;99.90;;;;;;5068459;28;20020;-84
2022/08/21 01:30:37;;;;;;;1.50;0.52;;;15.80;99.90;;;;;;5071151;28;20074;-84
2022/08/21 01:33:03;;;;;;;2.90;0.65;;;15.80;99.90;;;;;;5072110;28;20035;-84
2022/08/21 01:35:29;;;;;;;1.90;0.50;;;15.80;99.90;;;;;;5069603;28;20563;-84
2022/08/21 01:37:55;;;;;;;1.25;0.50;;;15.80;99.90;;;;;;5070800;28;20025;-85
2022/08/21 01:40:21;;;;;;;2.28;0.80;;;15.80;99.90;;;;;;5072189;28;20035;-85
2022/08/21 01:42:48;;;;;;;1.33;0.52;;;15.70;99.90;;;;;;5072182;28;20021;-84
2022/08/21 01:45:15;;;;;;;2.83;0.70;;;15.70;99.90;;;;;;5069616;28;20115;-85
2022/08/21 01:47:42;;;;;;;0.60;0.30;;;15.70;99.90;;;;;;5072306;28;20031;-83
2022/08/21 01:50:11;;;;;;;1.42;0.60;;;15.70;99.90;;;;;;5071655;28;20636;-83
2022/08/21 01:52:37;;;;;;;1.83;0.80;;;15.70;99.90;;;;;;5068388;28;20052;-85
2022/08/21 01:55:06;;;;;;;1.48;0.50;;;15.60;99.90;;;;;;5071608;28;20051;-84
2022/08/21 01:57:32;;;;;;;2.58;0.60;;;15.60;99.90;;;;;;5071776;28;20032;-85
2022/08/21 01:59:58;;;;;;;1.75;0.47;;;15.60;99.90;;;;;;5070052;28;20028;-85
2022/08/21 02:02:24;;;;;;;1.52;0.50;;;15.60;99.90;;;;;;5070148;28;20047;-84
2022/08/21 02:04:50;;;;;;;1.08;0.40;;;15.60;99.90;;;;;;5061047;28;20033;-84
2022/08/21 02:07:16;;;;;;;1.75;0.63;;;15.60;99.90;;;;;;5070157;28;20060;-84
2022/08/21 02:09:44;;;;;;;1.73;0.40;;;15.60;99.90;;;;;;5069245;28;20397;-84
2022/08/21 02:12:11;;;;;;;1.95;0.60;;;15.50;99.90;;;;;;5070076;28;20055;-84
2022/08/21 02:14:37;;;;;;;4.13;0.57;;;15.60;99.90;;;;;;5066836;28;20094;-84
2022/08/21 02:17:04;;;;;;;2.50;0.70;;;15.50;99.90;;;;;;5070048;28;20021;-84
2022/08/21 02:19:29;;;;;;;1.75;0.60;;;15.50;99.90;;;;;;5069328;28;20020;-85
2022/08/21 02:21:55;;;;;;;1.55;0.47;;;15.50;99.90;;;;;;5067407;28;20139;-84
2022/08/21 02:24:21;;;;;;;1.55;0.75;;;15.50;99.90;;;;;;5083537;28;20562;-84
2022/08/21 02:26:46;;;;;;;3.42;0.55;;;15.70;99.90;;;;;;5070254;28;20048;-84
2022/08/21 02:29:12;;;;;;;1.80;0.55;;;15.70;99.90;;;;;;5072086;28;20025;-85
2022/08/21 02:31:38;;;;;;;1.73;0.50;;;15.40;99.90;;;;;;5068797;28;20104;-85
2022/08/21 02:34:03;;;;;;;2.08;0.50;;;15.60;99.90;;;;;;5070389;28;20028;-84
2022/08/21 02:36:29;;;;;;;1.02;0.57;;;15.30;99.90;;;;;;5071682;28;20103;-83
2022/08/21 02:38:55;;;;;;;1.00;0.50;;;15.30;99.90;;;;;;5071008;28;20012;-85
2022/08/21 02:41:21;;;;;;;2.08;0.70;;;15.30;99.90;;;;;;5070391;28;20029;-84
2022/08/21 02:43:47;;;;;;;2.22;0.95;;;15.30;99.90;;;;;;5071286;28;20031;-84
2022/08/21 02:46:15;;;;;;;1.05;0.47;;;;;;;;;;5071539;28;20030;-84
2022/08/21 02:48:41;;;;;;;2.53;0.70;;;15.20;99.90;;;;;;5069714;28;20024;-84
2022/08/21 02:51:10;;;;;;;3.58;0.80;;;15.10;99.90;;;;;;5070547;28;20542;-85
2022/08/21 02:53:37;;;;;;;2.67;0.80;;;15.10;99.90;;;;;;5069644;28;20044;-85
2022/08/21 02:56:07;;;;;;;1.33;0.60;;;15.10;99.90;;;;;;5069321;28;20021;-85
2022/08/21 02:58:38;;;;;;;1.33;0.60;;;15.00;99.90;;;;;;5069255;28;20036;-85
2022/08/21 03:01:08;;;;;;;1.60;0.63;;;15.10;99.90;;;;;;5071631;28;20047;-85
2022/08/21 03:03:35;;;;;;;3.00;0.70;;;15.00;99.90;;;;;;5070360;28;20033;-85
2022/08/21 03:06:00;;;;;;;3.60;0.60;;;15.00;99.90;;;;;;5070102;28;20028;-84
2022/08/21 03:08:26;;;;;;;1.30;0.50;;;15.00;99.90;;;;;;5066724;28;20028;-85
2022/08/21 03:10:52;;;;;;;2.83;0.52;;;15.00;99.90;;;;;;5069647;28;20062;-85
2022/08/21 03:13:20;;;;;;;2.90;0.70;;;15.00;99.90;;;;;;5068701;28;20032;-85
2022/08/21 03:15:47;;;;;;;2.20;0.70;;;15.00;99.90;;;;;;5069530;28;20025;-85
2022/08/21 03:18:13;;;;;;;1.48;0.55;;;15.10;99.90;;;;;;5064630;28;20050;-85
2022/08/21 03:20:41;;;;;;;2.60;1.00;;;14.80;99.90;;;;;;5083593;28;20104;-85
2022/08/21 03:23:07;;;;;;;1.63;0.60;;;15.00;99.90;;;;;;5085762;28;20040;-85
2022/08/21 03:25:34;;;;;;;1.45;0.50;;;15.30;99.90;;;;;;5067716;28;20131;-85
2022/08/21 03:28:01;;;;;;;2.28;0.80;;;15.00;99.90;;;;;;5071242;28;20457;-84
2022/08/21 03:30:27;;;;;;;1.45;0.70;;;14.90;99.90;;;;;;5076265;28;20044;-85
2022/08/21 03:32:53;;;;;;;2.00;0.65;;;14.90;99.90;;;;;;5066830;28;20035;-85
2022/08/21 03:35:19;;;;;;;1.83;0.70;;;14.90;99.90;;;;;;5070578;28;20024;-84
2022/08/21 03:37:45;;;;;;;1.50;0.55;;;14.90;99.90;;;;;;5072056;28;20029;-84
2022/08/21 03:40:14;;;;;;;3.35;0.77;;;14.90;99.90;;;;;;5070260;28;20094;-84
2022/08/21 03:42:39;;;;;;;1.35;0.50;;;14.80;99.90;;;;;;5071806;28;20489;-85
2022/08/21 03:45:06;;;;;;;2.75;0.60;;;14.80;99.90;;;;;;5071083;28;20024;-85
2022/08/21 03:47:32;;;;;;;1.75;0.60;;;14.80;99.90;;;;;;5069187;28;20082;-85
2022/08/21 03:49:59;;;;;;;2.72;0.80;;;14.80;99.90;;;;;;5069949;28;20028;-84
2022/08/21 03:52:25;;;;;;;1.60;0.60;;;14.80;99.90;;;;;;5071173;28;20391;-83
2022/08/21 03:54:51;;;;;;;1.77;0.68;;;14.90;99.90;;;;;;5071534;28;20094;-85
2022/08/21 03:57:18;;;;;;;1.08;0.55;;;14.80;99.90;;;;;;5070084;28;20492;-85
2022/08/21 03:59:43;;;;;;;2.38;0.70;;;14.80;99.90;;;;;;5070124;28;20032;-85
2022/08/21 04:02:10;;;;;;;2.80;0.70;;;14.70;99.90;;;;;;5064822;28;20036;-85
2022/08/21 04:04:36;;;;;;;4.57;0.85;;;14.70;99.90;;;;;;5089654;22;20048;-83
2022/08/21 04:07:02;;;;;;;2.25;0.80;;;14.70;99.90;;;;;;5075924;28;20067;-84
2022/08/21 04:09:29;;;;;;;2.58;0.80;;;14.70;99.90;;;;;;5067582;28;20025;-84
2022/08/21 04:11:56;;;;;;;2.58;0.80;;;14.60;99.90;;;;;;5075859;28;20016;-84
2022/08/21 04:14:22;;;;;;;1.42;0.60;;;14.60;99.90;;;;;;5077361;28;20032;-85
2022/08/21 04:16:48;;;;;;;3.40;0.93;;;14.60;99.90;;;;;;5068427;28;20021;-85
2022/08/21 04:19:14;;;;;;;1.90;0.80;;;14.60;99.90;;;;;;5077423;28;20036;-85
2022/08/21 04:21:40;;;;;;;2.75;0.77;;;14.60;99.90;;;;;;5087161;22;20045;-85
2022/08/21 04:24:09;;;;;;;2.53;0.90;;;14.60;99.90;;;;;;5057603;28;20485;-84
2022/08/21 04:26:36;;;;;;;1.77;0.80;;;14.60;99.90;;;;;;5062162;28;20025;-85
2022/08/21 04:29:02;;;;;;;1.70;0.40;;;14.60;99.90;;;;;;5069397;28;20025;-85
2022/08/21 04:31:28;;;;;;;2.38;0.57;;;14.50;99.90;;;;;;5060880;28;20021;-85
2022/08/21 04:33:56;;;;;;;1.48;0.60;;;14.50;99.90;;;;;;5053828;28;20488;-85
2022/08/21 04:36:22;;;;;;;2.75;0.88;;;14.50;99.90;;;;;;5065228;28;20021;-85
2022/08/21 04:38:48;;;;;;;3.63;1.02;;;14.50;99.90;;;;;;5070310;28;20693;-85
2022/08/21 04:41:14;;;;;;;1.77;0.77;;;14.50;99.90;;;;;;5067719;28;20016;-86
2022/08/21 04:43:40;;;;;;;1.83;0.85;;;14.50;99.90;;;;;;5059107;28;20029;-86
2022/08/21 04:46:05;;;;;;;2.80;0.77;;;14.60;99.90;;;;;;5069963;28;20171;-85
2022/08/21 04:48:32;;;;;;;2.42;0.93;;;14.50;99.90;;;;;;5070003;28;20039;-85
2022/08/21 04:51:19;;;;;;;1.48;0.65;;;14.60;99.90;;;;;;5073447;28;20465;-85
2022/08/21 04:53:59;;;;;;;1.75;0.70;;;14.60;99.90;;;;;;5065012;28;20068;-85
2022/08/21 04:56:36;;;;;;;2.60;0.65;;;14.60;99.90;;;;;;5064063;28;20474;-84
2022/08/21 04:59:06;;;;;;;1.60;0.57;;;14.60;99.90;;;;;;5084420;28;20035;-86
2022/08/21 05:01:35;;;;;;;1.50;0.60;;;14.70;99.90;;;;;;5072631;28;20400;-86
2022/08/21 05:04:04;;;;;;;1.58;0.55;;;14.70;99.90;;;;;;5072151;28;20454;-86
2022/08/21 05:06:32;;;;;;;1.25;0.50;;;14.80;99.90;;;;;;5071493;28;20031;-86
2022/08/21 05:08:58;;;;;;;1.52;0.75;;;14.90;99.90;;;;;;5059974;28;20511;-85
2022/08/21 05:11:24;;;;;;;1.70;0.47;;;15.00;99.90;;;;;;5072413;28;20066;-86
2022/08/21 05:13:50;;;;;;;3.00;0.80;;;15.00;99.90;;;;;;5071000;28;20035;-86
2022/08/21 05:16:16;;;;;;;2.45;0.80;;;15.10;99.90;;;;;;5076089;28;20032;-85
2022/08/21 05:18:43;;;;;;;1.10;0.52;;;15.20;99.90;;;;;;5070786;28;20029;-85
2022/08/21 05:21:09;;;;;;;3.88;0.90;;;15.30;99.90;;;;;;5060779;28;20522;-85
2022/08/21 05:23:35;;;;;;;2.45;0.80;;;15.30;99.90;;;;;;5068200;28;20141;-85
2022/08/21 05:26:04;;;;;;;1.50;0.68;;;15.40;99.90;;;;;;5071583;28;20033;-85
2022/08/21 05:28:30;;;;;;;1.17;0.47;;;15.50;99.90;;;;;;5072232;28;20082;-85
2022/08/21 05:30:56;;;;;;;4.57;0.70;;;15.50;99.90;;;;;;5063991;28;20032;-85
2022/08/21 05:33:22;;;;;;;1.50;0.50;;;15.50;99.90;;;;;;5072114;28;20035;-85
2022/08/21 05:35:55;;;;;;;1.45;0.60;;;15.60;99.90;;;;;;5069619;28;20032;-85
2022/08/21 05:38:22;;;;;;;3.00;0.93;;;15.60;99.90;;;;;;5069213;28;20099;-84
2022/08/21 05:40:48;;;;;;;1.23;0.57;;;15.70;99.90;;;;;;5070639;28;20387;-85
2022/08/21 05:43:14;;;;;;;1.00;0.43;;;15.70;99.90;;;;;;5063988;28;20035;-85
2022/08/21 05:45:40;;;;;;;2.15;0.65;;;15.80;99.90;;;;;;5062339;28;20389;-85
2022/08/21 05:48:07;;;;;;;3.05;0.80;;;15.80;99.90;;;;;;5062243;28;20017;-85
2022/08/21 05:50:34;;;;;;;2.70;0.90;;;15.90;99.90;;;;;;5058160;28;20056;-85
2022/08/21 05:53:00;;;;;;;2.65;0.70;;;16.00;99.90;;;;;;5064299;28;20016;-84
2022/08/21 05:55:26;;;;;;;2.10;0.80;;;16.10;99.90;;;;;;5070397;28;20362;-85
2022/08/21 05:57:52;;;;;;;1.60;0.68;;;16.20;99.90;;;;;;5071107;28;20013;-85
2022/08/21 06:00:17;;;;;;;2.90;1.05;;;16.30;99.90;;;;;;5062231;28;20029;-85
2022/08/21 06:02:43;;;;;;;3.20;0.63;;;16.40;99.90;;;;;;5069855;28;20055;-85
2022/08/21 06:05:09;;;;;;;2.88;0.77;;;16.50;99.90;;;;;;5070947;28;20021;-85
2022/08/21 06:07:34;;;;;;;4.45;1.30;;;16.60;99.90;;;;;;5071727;28;20040;-85
2022/08/21 06:10:00;;;;;;;1.70;0.60;;;16.70;99.90;;;;;;5070831;28;20422;-86
2022/08/21 06:12:26;;;;;;;1.90;0.80;;;16.80;99.90;;;;;;5067300;28;20024;-85
2022/08/21 06:14:52;;;;;;;2.33;0.75;;;16.90;99.90;;;;;;5069956;28;20104;-85
2022/08/21 06:17:18;;;;;;;1.75;0.80;;;17.00;99.90;;;;;;5065301;28;20033;-85
2022/08/21 06:19:44;;;;;;;2.28;0.80;;;17.10;99.90;;;;;;5070376;28;20009;-85
2022/08/21 06:22:10;;;;;;;1.73;0.70;;;17.10;99.90;;;;;;5068109;28;20028;-86
2022/08/21 06:24:35;;;;;;;1.75;0.73;;;17.00;99.90;;;;;;5065608;28;20024;-85
2022/08/21 06:27:07;;;;;;;2.80;0.80;;;17.20;99.90;;;;;;5066617;28;20025;-85
2022/08/21 06:29:34;;;;;;;;;;;17.30;99.90;;;;;;5078765;28;20056;-85
2022/08/21 06:32:00;;;;;;;1.83;0.80;;;17.40;99.90;;;;;;5070276;28;19905;-85
2022/08/21 06:34:25;;;;;;;2.75;0.70;;;17.50;99.90;;;;;;5060528;28;20040;-84
2022/08/21 06:36:51;;;;;;;2.38;0.70;;;17.50;99.90;;;;;;5060102;28;20021;-86
2022/08/21 06:39:17;;;;;;;2.15;0.80;;;17.50;99.90;;;;;;5066624;28;20025;-86
2022/08/21 06:41:42;;;;;;;1.90;0.63;;;17.60;99.90;;;;;;5070215;28;20024;-86
2022/08/21 06:44:08;;;;;;;1.60;0.68;;;17.70;99.90;;;;;;5066092;28;20028;-85
2022/08/21 06:46:34;;;;;;;1.63;0.60;;;17.70;99.90;;;;;;5061769;28;20032;-84
2022/08/21 06:48:59;;;;;;;2.42;0.80;;;17.80;99.90;;;;;;5065769;28;20471;-86
2022/08/21 06:51:26;;;;;;;1.52;0.50;;;17.80;99.90;;;;;;5069648;28;20094;-84
2022/08/21 06:53:52;;;;;;;1.50;0.65;;;17.90;99.90;;;;;;5068917;28;20025;-85
2022/08/21 06:56:18;;;;;;;2.95;0.85;;;18.10;99.90;;;;;;5085509;28;20033;-84
2022/08/21 06:58:45;;;;;;;3.72;0.85;;;18.30;99.90;;;;;;5079029;28;20442;-85
2022/08/21 07:01:10;;;;;;;1.83;0.60;;;18.40;99.90;;;;;;5072393;28;20021;-85
2022/08/21 07:03:40;;;;;;;1.52;0.63;;;18.50;99.90;;;;;;5065515;28;20024;-85
2022/08/21 07:06:06;;;;;;;6.15;0.77;;;18.60;99.90;;;;;;5069363;28;20489;-87
2022/08/21 07:08:33;;;;;;;1.23;0.68;;;18.70;99.90;;;;;;5068749;28;20136;-85
2022/08/21 07:11:01;;;;;;;2.08;0.75;;;18.70;99.90;;;;;;5067001;28;20497;-85
2022/08/21 07:13:27;;;;;;;1.92;0.85;;;18.70;99.90;;;;;;5075109;28;20052;-85
2022/08/21 07:15:52;;;;;;;3.40;0.70;;;18.90;99.90;;;;;;5067264;28;20027;-85
2022/08/21 07:18:18;;;;;;;2.25;0.80;;;19.00;99.90;;;;;;5067781;28;20017;-86
2022/08/21 07:20:45;;;;;;;2.28;0.80;;;19.10;99.90;;;;;;5067015;28;20074;-85
2022/08/21 07:23:30;;;;;;;1.73;0.80;;;19.30;99.90;;;;;;5058486;28;20039;-85
2022/08/21 07:25:55;;;;;;;2.60;0.88;;;19.40;99.90;;;;;;5070136;28;20111;-86
2022/08/21 07:28:21;;;;;;;2.58;0.65;;;19.40;99.90;;;;;;5062241;28;20057;-86
2022/08/21 07:30:52;;;;;;;1.48;0.68;;;19.40;99.90;;;;;;5066829;28;20021;-84
2022/08/21 07:33:17;;;;;;;2.33;0.77;;;19.30;99.90;;;;;;5061983;28;20033;-85
2022/08/21 07:35:43;;;;;;;5.18;0.90;;;19.30;99.90;;;;;;5061540;28;20107;-85
2022/08/21 07:38:09;;;;;;;4.25;1.08;;;19.20;99.90;;;;;;5061988;28;20440;-85
2022/08/21 07:40:34;;;;;;;1.95;1.00;;;19.30;99.90;;;;;;5065586;28;20104;-86
2022/08/21 07:43:00;;;;;;;1.73;0.70;;;19.30;99.90;;;;;;5069988;28;20549;-85
2022/08/21 07:45:26;;;;;;;5.22;0.93;;;19.40;99.90;;;;;;5068922;28;20025;-85
2022/08/21 07:47:52;;;;;;;3.40;1.00;;;19.50;99.90;;;;;;5066892;28;20082;-86
2022/08/21 07:50:18;;;;;;;2.58;1.08;;;19.50;99.90;;;;;;5066949;28;20036;-85
2022/08/21 07:52:45;;;;;;;2.22;0.90;;;19.60;99.90;;;;;;5070667;28;20083;-86
2022/08/21 07:55:15;;;;;;;2.45;1.00;;;19.80;99.90;;;;;;5067355;28;20020;-86
2022/08/21 07:57:41;;;;;;;3.17;1.00;;;20.00;99.90;;;;;;5071005;28;20016;-86
2022/08/21 08:00:10;;;;;;;3.97;1.27;;;20.00;99.90;;;;;;5070369;28;20500;-86
2022/08/21 08:02:36;;;;;;;1.80;0.85;;;20.10;99.90;;;;;;5067195;28;20396;-86
2022/08/21 08:05:08;;;;;;;3.17;1.00;;;20.20;99.90;;;;;;5066963;28;20096;-86
2022/08/21 08:07:34;;;;;;;4.35;1.55;;;20.30;99.90;;;;;;5072323;28;20024;-86
2022/08/21 08:10:01;;;;;;;2.30;0.80;;;20.50;99.90;;;;;;5067195;28;20444;-85
2022/08/21 08:12:29;;;;;;;4.07;1.00;;;20.50;99.90;;;;;;5070662;28;20032;-86
2022/08/21 08:14:58;;;;;;;3.40;1.00;;;20.70;99.90;;;;;;5066951;28;20730;-85
2022/08/21 08:17:23;;;;;;;2.72;1.00;;;20.80;99.90;;;;;;5070629;28;20016;-86
2022/08/21 08:19:50;;;;;;;4.47;0.85;;;21.00;99.90;;;;;;5069327;28;20021;-86
2022/08/21 08:22:19;;;;;;;2.80;0.88;;;21.10;99.90;;;;;;5074203;28;20059;-86
2022/08/21 08:24:45;;;;;;;3.28;1.02;;;21.40;99.90;;;;;;5069524;28;20033;-85
2022/08/21 08:27:11;;;;;;;2.28;0.88;;;21.70;99.90;;;;;;5063191;28;20078;-86
2022/08/21 08:29:37;;;;;;;2.20;1.15;;;21.90;99.90;;;;;;5063535;28;20033;-86
2022/08/21 08:32:04;;;;;;;4.75;1.00;;;22.20;99.90;;;;;;5061151;28;20017;-86
2022/08/21 08:34:30;;;;;;;4.20;1.00;;;22.10;99.90;;;;;;5071936;28;20036;-86
2022/08/21 08:36:58;;;;;;;1.88;0.73;;;22.10;99.90;;;;;;5071121;28;20021;-86
2022/08/21 08:39:24;;;;;;;5.00;0.98;;;22.00;99.90;;;;;;5070904;28;20162;-86
2022/08/21 08:42:10;;;;;;;3.88;0.70;;;22.10;99.90;;;;;;5066616;28;20515;-85
2022/08/21 08:44:37;;;;;;;3.17;0.70;;;22.30;99.90;;;;;;5060446;28;20056;-86
2022/08/21 08:47:04;;;;;;;2.47;1.08;;;22.50;99.90;;;;;;5072106;28;20021;-85
2022/08/21 08:50:11;;;;;;;1.85;0.80;;;22.70;99.90;;;;;;5067446;28;20107;-85
2022/08/21 08:52:48;;;;;;;2.05;1.05;;;22.70;99.90;;;;;;5070924;28;20505;-85
2022/08/21 08:55:37;;;;;;;2.08;0.80;;;22.90;99.90;;;;;;5065579;28;20024;-85
2022/08/21 08:58:03;;;;;;;3.25;0.95;;;23.10;99.90;;;;;;5067589;28;20016;-85
2022/08/21 09:00:31;;;;;;;4.63;1.10;;;23.20;99.90;;;;;;5067056;28;20025;-85
2022/08/21 09:02:59;;;;;;;2.70;0.95;;;22.80;99.90;;;;;;5072423;28;20457;-85
2022/08/21 09:05:42;;;;;;;3.97;0.95;;;22.40;99.90;;;;;;5070039;28;20028;-85
2022/08/21 09:08:32;;;;;;;4.82;1.10;;;22.40;99.90;;;;;;5070856;28;20116;-86
2022/08/21 09:11:07;;;;;;;3.50;0.90;;;22.70;99.90;;;;;;5067017;28;20400;-86
2022/08/21 09:13:47;;;;;;;3.50;0.82;;;22.90;99.90;;;;;;5066814;28;20315;-85
2022/08/21 09:16:36;;;;;;;2.83;1.00;;;23.00;99.90;;;;;;5063536;28;20091;-85
2022/08/21 09:19:29;;;;;;;4.22;1.00;;;23.20;99.90;;;;;;5068014;28;20104;-85
2022/08/21 09:21:57;;;;;;;4.80;0.85;;;23.60;99.90;;;;;;5068483;28;20401;-86
2022/08/21 09:24:25;;;;;;;2.30;0.90;;;23.80;99.90;;;;;;5069391;28;20031;-86
2022/08/21 09:27:11;;;;;;;2.17;0.82;;;23.80;99.70;;;;;;5071157;28;20029;-86
2022/08/21 09:29:40;;;;;;;2.13;0.77;;;23.60;99.90;;;;;;5071783;28;20028;-86
2022/08/21 09:32:18;;;;;;;2.53;1.20;;;23.60;99.90;;;;;;5069976;28;20080;-85
2022/08/21 09:34:55;;;;;;;2.70;1.08;;;24.00;99.90;;;;;;5064554;28;21503;-85
2022/08/21 09:37:20;;;;;;;2.40;1.00;;;24.20;99.90;;;;;;5070510;28;20151;-86
2022/08/21 09:39:46;;;;;;;3.58;0.98;;;24.20;99.90;;;;;;5071831;28;20099;-85
2022/08/21 09:42:23;;;;;;;2.75;1.02;;;24.60;99.90;;;;;;5071649;28;20024;-84
2022/08/21 09:44:49;;;;;;;2.15;0.85;;;24.60;99.30;;;;;;5069531;28;20012;-85
2022/08/21 09:47:19;;;;;;;5.80;1.33;;;24.90;99.90;;;;;;5066408;28;20496;-85
2022/08/21 09:49:44;;;;;;;4.82;1.15;;;25.30;99.20;;;;;;5063588;28;20720;-86
2022/08/21 09:52:22;;;;;;;2.80;1.00;;;25.20;98.70;;;;;;5066851;28;20017;-84
2022/08/21 09:54:52;;;;;;;3.92;0.98;;;25.10;98.60;;;;;;5061455;28;20453;-87
2022/08/21 09:57:40;;;;;;;2.20;0.98;;;25.30;98.40;;;;;;5066802;28;20446;-86
2022/08/21 10:00:18;;;;;;;2.35;0.82;;;25.00;98.30;;;;;;5064579;28;20020;-85
2022/08/21 10:02:43;;;;;;;3.08;0.80;;;24.50;98.20;;;;;;5060565;28;20110;-86
2022/08/21 10:05:25;;;;;;;2.50;1.05;;;24.70;98.50;;;;;;5060990;28;20045;-84
2022/08/21 10:07:52;;;;;;;4.18;1.25;;;25.00;98.20;;;;;;5068043;28;20024;-85
2022/08/21 10:10:25;;;;;;;1.85;0.90;;;25.20;96.80;;;;;;5067678;28;20036;-85
2022/08/21 10:12:59;;;;;;;2.88;1.10;;;25.00;96.00;;;;;;5059653;28;20028;-85
2022/08/21 10:15:37;;;;;;;2.13;0.88;;;24.30;96.90;;;;;;5071079;28;20082;-83
2022/08/21 10:18:21;;;;;;;3.30;1.08;;;24.40;96.30;;;;;;5071912;28;20021;-85
2022/08/21 10:21:00;;;;;;;2.45;1.15;;;24.70;97.30;;;;;;5069870;28;20017;-86
2022/08/21 10:23:35;;;;;;;2.97;0.88;;;25.00;96.60;;;;;;5093375;22;20044;-87
2022/08/21 10:26:10;;;;;;;2.15;0.90;;;25.20;95.70;;;;;;5095864;28;20036;-86
2022/08/21 10:28:47;;;;;;;1.88;0.90;;;25.50;95.70;;;;;;5095729;28;20074;-87
2022/08/21 10:31:50;;;;;;;2.60;0.60;;;25.70;96.20;;;;;;5095365;28;20091;-87
2022/08/21 10:34:36;;;;;;;3.63;0.82;;;25.90;95.70;;;;;;5089312;28;20028;-86
2022/08/21 10:37:45;;;;;;;2.95;0.80;;;26.10;94.50;;;;;;5070939;28;20025;-87
2022/08/21 10:40:49;;;;;;;2.53;0.88;;;25.80;93.20;;;;;;5070467;28;20012;-87
2022/08/21 10:43:36;;;;;;;1.75;0.75;;;26.10;93.60;;;;;;5077186;28;20016;-87
2022/08/21 10:46:18;;;;;;;3.22;0.93;;;26.30;94.10;;;;;;5072101;28;20024;-85
2022/08/21 10:49:07;;;;;;;3.17;0.82;;;25.90;92.60;;;;;;5074207;28;20020;-85
2022/08/21 10:51:49;;;;;;;3.25;0.90;;;26.30;93.00;;;;;;5070947;28;20017;-85
2022/08/21 10:54:29;;;;;;;3.13;0.80;;;26.80;92.60;;;;;;5074234;28;20020;-86
2022/08/21 10:57:02;;;;;;;3.05;0.73;;;27.00;92.00;;;;;;5071853;28;20032;-86
2022/08/21 10:59:59;;;;;;;2.40;0.65;;;27.10;92.10;;;;;;5069546;28;20020;-86
2022/08/21 11:02:27;;;;;;;1.65;0.77;;;27.40;91.10;;;;;;5049651;28;20043;-86
2022/08/21 11:05:11;;;;;;;2.33;0.93;;;27.70;91.60;;;;;;5071167;28;20024;-86
2022/08/21 11:07:53;;;;;;;1.58;0.80;;;27.70;91.60;;;;;;5072438;28;20473;-86
2022/08/21 11:10:31;;;;;;;3.08;0.85;;;28.00;89.90;;;;;;5067972;28;20048;-86
2022/08/21 11:13:07;;;;;;;2.42;0.80;;;27.60;90.50;;;;;;5071140;28;20544;-85
2022/08/21 11:15:47;;;;;;;3.08;1.00;;;27.70;89.30;;;;;;5086631;28;20029;-85
2022/08/21 11:18:26;;;;;;;4.07;0.90;;;28.00;90.20;;;;;;5065484;28;20020;-86
2022/08/21 11:20:58;;;;;;;3.67;1.17;;;28.20;87.90;;;;;;5082244;28;20033;-86
2022/08/21 11:23:53;;;;;;;3.67;1.38;;;28.40;85.10;;;;;;5069768;28;20397;-85
2022/08/21 11:26:52;;;;;;;3.05;0.88;;;28.30;84.60;;;;;;5067106;28;20029;-86
2022/08/21 11:29:26;;;;;;;1.83;0.60;;;28.40;84.20;;;;;;5059874;28;20033;-86
2022/08/21 11:32:10;;;;;;;1.98;0.80;;;28.40;83.20;;;;;;5071059;28;20119;-85
2022/08/21 11:34:40;;;;;;;2.22;0.77;;;28.40;83.50;;;;;;5071725;28;20074;-85
2022/08/21 11:37:17;;;;;;;2.28;0.95;;;28.40;85.60;;;;;;5070345;28;20058;-85
2022/08/21 11:40:04;;;;;;;5.07;0.93;;;28.50;84.80;;;;;;5070986;28;20032;-84
2022/08/21 11:42:43;;;;;;;2.25;0.88;;;28.60;84.00;;;;;;5067680;28;20036;-85
2022/08/21 11:45:25;;;;;;;1.38;0.65;;;28.40;82.20;;;;;;5075614;28;20023;-85
2022/08/21 11:48:23;;;;;;;2.85;0.90;;;28.60;83.40;;;;;;5062730;28;20025;-85
2022/08/21 11:50:50;;;;;;;2.88;0.93;;;28.80;83.60;;;;;;5085457;28;20037;-86
2022/08/21 11:53:42;;;;;;;2.25;0.70;;;28.70;82.20;;;;;;5076006;28;20024;-86
2022/08/21 11:56:20;;;;;;;1.70;0.60;;;28.70;81.80;;;;;;5069306;28;20384;-86
2022/08/21 11:58:55;;;;;;;2.35;0.80;;;28.10;82.50;;;;;;5071122;28;20025;-85
2022/08/21 12:01:27;;;;;;;3.40;0.90;;;28.40;82.20;;;;;;5072757;28;20048;-85
2022/08/21 12:03:56;;;;;;;2.13;0.65;;;28.70;81.80;;;;;;5069911;28;20082;-86
2022/08/21 12:06:31;;;;;;;2.30;0.65;;;28.90;78.50;;;;;;5075194;28;20024;-86
2022/08/21 12:09:19;;;;;;;2.92;0.75;;;28.80;80.50;;;;;;5073727;28;20120;-86
2022/08/21 12:11:59;;;;;;;2.67;0.82;;;28.60;79.80;;;;;;5037711;28;20397;-86
2022/08/21 12:14:47;;;;;;;4.10;0.90;;;28.50;78.90;;;;;;5075759;28;20505;-85
2022/08/21 12:17:22;;;;;;;1.60;0.80;;;28.70;79.40;;;;;;5075272;28;20032;-86
2022/08/21 12:20:17;;;;;;;3.03;0.70;;;29.20;77.80;;;;;;5072568;28;20469;-86
2022/08/21 12:22:52;;;;;;;1.63;0.73;;;29.40;79.80;;;;;;5081122;28;20055;-85
2022/08/21 12:25:20;;;;;;;2.50;0.70;;;29.60;77.60;;;;;;5086153;28;20119;-87
2022/08/21 12:27:52;;;;;;;3.47;0.80;;;29.80;77.30;;;;;;5090493;28;20384;-85
2022/08/21 12:30:36;;;;;;;2.35;0.80;;;30.20;76.90;;;;;;5088122;28;20493;-86
2022/08/21 12:33:19;;;;;;;1.42;0.60;;;30.10;75.60;;;;;;5068519;28;20021;-86
2022/08/21 12:35:46;;;;;;;1.60;0.80;;;30.40;74.10;;;;;;5068030;28;20129;-85
2022/08/21 12:38:29;;;;;;;1.80;0.80;;;30.50;72.70;;;;;;5088827;28;20017;-86
2022/08/21 12:41:05;;;;;;;2.53;0.90;;;30.50;72.40;;;;;;5075191;28;20017;-86
2022/08/21 12:43:59;;;;;;;4.22;0.90;;;30.60;73.20;;;;;;5076711;28;20433;-86
2022/08/21 12:46:59;;;;;;;2.78;0.75;;;30.40;70.00;;;;;;5073697;28;20028;-85
2022/08/21 12:49:36;;;;;;;3.88;0.90;;;30.00;72.70;;;;;;5073271;28;20572;-85
2022/08/21 12:52:16;;;;;;;1.70;0.70;;;29.50;72.00;;;;;;5089733;28;20032;-85
2022/08/21 12:54:44;;;;;;;3.27;0.70;;;29.50;71.20;;;;;;5074481;28;20025;-86
2022/08/21 12:57:20;;;;;;;3.20;1.05;;;30.00;72.30;;;;;;5077118;28;20679;-86
2022/08/21 12:59:51;;;;;;;2.08;0.75;;;30.00;72.80;;;;;;5069834;28;20481;-86
2022/08/21 13:02:18;;;;;;;;;;;30.60;71.20;;;;;;5072736;28;20048;-86
2022/08/21 13:04:45;;;;;;;1.48;0.85;;;31.00;69.80;;;;;;5073004;28;20357;-85
2022/08/21 13:07:15;;;;;;;2.63;0.77;;;31.20;71.20;;;;;;5088546;28;20052;-86